createdAt,value
2019-03-27T00:00:52.590Z,38.07
2019-03-27T00:01:52.464Z,38.04
2019-03-27T00:02:52.486Z,38.1
2019-03-27T00:03:52.397Z,38.09
2019-03-27T00:04:52.489Z,38.12
2019-03-27T00:05:52.501Z,38.08
2019-03-27T00:06:52.532Z,38.1
2019-03-27T00:07:52.470Z,38.1
2019-03-27T00:08:52.575Z,38.12
2019-03-27T00:09:52.686Z,38.13
2019-03-27T00:10:52.568Z,38.14
2019-03-27T00:11:52.408Z,38.14
2019-03-27T00:12:52.445Z,38.15
2019-03-27T00:13:52.431Z,38.14
2019-03-27T00:14:52.439Z,38.09
2019-03-27T00:15:52.529Z,38.17
2019-03-27T00:16:52.472Z,38.16
2019-03-27T00:17:52.478Z,38.15
2019-03-27T00:18:52.482Z,38.11
2019-03-27T00:19:52.508Z,38.13
2019-03-27T00:20:52.486Z,38.09
2019-03-27T00:21:52.645Z,38.18
2019-03-27T00:22:52.468Z,38.16
2019-03-27T00:23:52.660Z,38.12
2019-03-27T00:24:52.582Z,38.16
2019-03-27T00:25:52.573Z,38.16
2019-03-27T00:26:52.340Z,38.14
2019-03-27T00:27:52.637Z,38.15
2019-03-27T00:28:52.618Z,38.15
2019-03-27T00:29:52.606Z,38.14
2019-03-27T00:30:52.673Z,38.2
2019-03-27T00:31:54.299Z,38.18
2019-03-27T00:32:52.357Z,38.16
2019-03-27T00:33:52.505Z,38.17
2019-03-27T00:34:52.440Z,38.2
2019-03-27T00:35:52.401Z,38.2
2019-03-27T00:36:52.411Z,38.2
2019-03-27T00:37:52.525Z,38.15
2019-03-27T00:38:52.455Z,38.19
2019-03-27T00:39:52.509Z,38.17
2019-03-27T00:40:52.491Z,38.19
2019-03-27T00:41:52.607Z,38.23
2019-03-27T00:42:52.499Z,38.19
2019-03-27T00:43:52.518Z,38.19
2019-03-27T00:44:52.529Z,38.21
2019-03-27T00:45:52.614Z,38.2
2019-03-27T00:46:52.548Z,38.23
2019-03-27T00:47:52.680Z,38.18
2019-03-27T00:48:52.383Z,38.21
2019-03-27T00:49:52.487Z,38.25
2019-03-27T00:50:52.414Z,38.23
2019-03-27T00:51:52.333Z,38.21
2019-03-27T00:52:52.821Z,38.22
2019-03-27T00:53:52.470Z,38.23
2019-03-27T00:54:52.462Z,38.23
2019-03-27T00:55:52.449Z,38.23
2019-03-27T00:56:52.553Z,38.25
2019-03-27T00:57:52.413Z,38.22
2019-03-27T00:58:52.500Z,38.25
2019-03-27T00:59:52.521Z,38.21
2019-03-27T01:00:52.544Z,38.25
2019-03-27T01:01:52.536Z,38.23
2019-03-27T01:02:52.564Z,38.28
2019-03-27T01:03:52.567Z,38.28
2019-03-27T01:04:52.682Z,38.27
2019-03-27T01:05:52.364Z,38.26
2019-03-27T01:06:52.359Z,38.25
2019-03-27T01:07:52.439Z,38.24
2019-03-27T01:08:52.460Z,38.23
2019-03-27T01:09:52.378Z,38.26
2019-03-27T01:10:52.380Z,38.29
2019-03-27T01:11:52.419Z,38.27
2019-03-27T01:12:52.525Z,38.27
2019-03-27T01:13:52.363Z,38.26
2019-03-27T01:14:52.617Z,38.26
2019-03-27T01:15:52.458Z,38.25
2019-03-27T01:16:53.623Z,38.32
2019-03-27T01:17:52.534Z,38.26
2019-03-27T01:18:52.514Z,38.28
2019-03-27T01:19:52.502Z,38.27
2019-03-27T01:20:52.522Z,38.26
2019-03-27T01:21:52.721Z,38.29
2019-03-27T01:22:52.439Z,38.27
2019-03-27T01:23:52.695Z,38.29
2019-03-27T01:24:52.360Z,38.31
2019-03-27T01:25:52.460Z,38.27
2019-03-27T01:26:55.138Z,38.3
2019-03-27T01:27:52.481Z,38.31
2019-03-27T01:28:52.399Z,38.29
2019-03-27T01:29:52.322Z,38.28
2019-03-27T01:30:52.454Z,38.26
2019-03-27T01:31:52.444Z,38.32
2019-03-27T01:32:52.327Z,38.33
2019-03-27T01:33:52.594Z,38.29
2019-03-27T01:34:52.552Z,38.29
2019-03-27T01:35:52.606Z,38.29
2019-03-27T01:36:52.856Z,38.3
2019-03-27T01:37:52.522Z,38.32
2019-03-27T01:38:52.560Z,38.31
2019-03-27T01:39:52.588Z,38.31
2019-03-27T01:40:52.318Z,38.3
2019-03-27T01:41:52.661Z,38.32
2019-03-27T01:42:52.602Z,38.33
2019-03-27T01:43:52.313Z,38.33
2019-03-27T01:44:52.357Z,38.33
2019-03-27T01:45:53.619Z,38.35
2019-03-27T01:46:52.434Z,38.35
2019-03-27T01:47:52.337Z,38.35
2019-03-27T01:48:52.379Z,38.33
2019-03-27T01:49:52.381Z,38.31
2019-03-27T01:50:52.400Z,38.33
2019-03-27T01:51:52.535Z,38.33
2019-03-27T01:52:52.440Z,38.35
2019-03-27T01:53:52.609Z,38.38
2019-03-27T01:54:52.446Z,38.36
2019-03-27T01:55:52.555Z,38.34
2019-03-27T01:56:52.332Z,38.35
2019-03-27T01:57:53.002Z,38.36
2019-03-27T01:58:52.447Z,38.34
2019-03-27T01:59:52.547Z,38.35
2019-03-27T02:00:52.294Z,38.35
2019-03-27T02:01:52.591Z,38.35
2019-03-27T02:02:52.334Z,38.34
2019-03-27T02:03:52.362Z,38.36
2019-03-27T02:04:52.403Z,38.38
2019-03-27T02:05:52.371Z,38.38
2019-03-27T02:06:52.402Z,38.37
2019-03-27T02:07:52.453Z,38.36
2019-03-27T02:08:52.404Z,38.35
2019-03-27T02:09:52.523Z,38.36
2019-03-27T02:10:52.468Z,38.32
2019-03-27T02:11:52.499Z,38.38
2019-03-27T02:12:52.592Z,38.37
2019-03-27T02:13:52.462Z,38.35
2019-03-27T02:14:52.598Z,38.36
2019-03-27T02:16:07.331Z,38.37
2019-03-27T02:16:52.659Z,38.37
2019-03-27T02:17:52.659Z,38.37
2019-03-27T02:18:52.686Z,38.33
2019-03-27T02:19:53.014Z,38.35
2019-03-27T02:20:52.641Z,38.35
2019-03-27T02:21:52.508Z,38.39
2019-03-27T02:22:52.390Z,38.38
2019-03-27T02:23:52.338Z,38.37
2019-03-27T02:24:52.338Z,38.38
2019-03-27T02:25:52.286Z,38.37
2019-03-27T02:26:52.418Z,38.4
2019-03-27T02:27:52.372Z,38.37
2019-03-27T02:28:52.386Z,38.39
2019-03-27T02:29:52.299Z,38.37
2019-03-27T02:30:52.418Z,38.39
2019-03-27T02:31:52.535Z,38.37
2019-03-27T02:32:52.610Z,38.36
2019-03-27T02:33:52.489Z,38.38
2019-03-27T02:34:52.545Z,38.36
2019-03-27T02:35:52.491Z,38.37
2019-03-27T02:36:52.505Z,38.39
2019-03-27T02:37:52.506Z,38.38
2019-03-27T02:38:52.623Z,38.42
2019-03-27T02:39:52.521Z,38.37
2019-03-27T02:40:52.447Z,38.4
2019-03-27T02:41:52.357Z,38.37
2019-03-27T02:42:52.487Z,38.39
2019-03-27T02:43:52.406Z,38.36
2019-03-27T02:44:52.391Z,38.39
2019-03-27T02:45:52.303Z,38.39
2019-03-27T02:46:52.414Z,38.41
2019-03-27T02:47:52.493Z,38.4
2019-03-27T02:48:52.471Z,38.4
2019-03-27T02:49:53.326Z,38.37
2019-03-27T02:50:52.499Z,38.4
2019-03-27T02:51:52.594Z,38.37
2019-03-27T02:52:52.295Z,38.39
2019-03-27T02:53:52.524Z,38.38
2019-03-27T02:54:52.563Z,38.41
2019-03-27T02:55:52.535Z,38.38
2019-03-27T02:56:52.286Z,38.38
2019-03-27T02:57:52.573Z,38.4
2019-03-27T02:58:52.578Z,38.42
2019-03-27T02:59:52.319Z,38.39
2019-03-27T03:00:52.365Z,38.41
2019-03-27T03:01:52.836Z,38.44
2019-03-27T03:02:52.320Z,38.4
2019-03-27T03:03:52.396Z,38.41
2019-03-27T03:04:52.325Z,38.38
2019-03-27T03:05:52.663Z,38.39
2019-03-27T03:06:52.430Z,38.39
2019-03-27T03:07:52.403Z,38.43
2019-03-27T03:08:52.269Z,38.41
2019-03-27T03:09:52.473Z,38.42
2019-03-27T03:10:52.624Z,38.42
2019-03-27T03:11:52.461Z,38.39
2019-03-27T03:12:52.318Z,38.41
2019-03-27T03:13:52.660Z,38.42
2019-03-27T03:14:52.743Z,38.4
2019-03-27T03:15:52.557Z,38.39
2019-03-27T03:16:52.317Z,38.41
2019-03-27T03:17:52.436Z,38.42
2019-03-27T03:18:52.508Z,38.36
2019-03-27T03:19:52.437Z,38.41
2019-03-27T03:20:52.494Z,38.38
2019-03-27T03:21:52.540Z,38.43
2019-03-27T03:22:52.537Z,38.4
2019-03-27T03:23:53.395Z,38.42
2019-03-27T03:24:52.477Z,38.4
2019-03-27T03:25:52.693Z,38.43
2019-03-27T03:26:52.498Z,38.42
2019-03-27T03:27:52.482Z,38.41
2019-03-27T03:28:52.485Z,38.46
2019-03-27T03:29:52.489Z,38.45
2019-03-27T03:30:52.525Z,38.42
2019-03-27T03:31:52.271Z,38.44
2019-03-27T03:32:52.673Z,38.4
2019-03-27T03:33:52.567Z,38.42
2019-03-27T03:34:52.286Z,38.43
2019-03-27T03:35:52.579Z,38.41
2019-03-27T03:36:52.308Z,38.43
2019-03-27T03:37:52.366Z,38.44
2019-03-27T03:38:52.529Z,38.42
2019-03-27T03:39:52.389Z,38.41
2019-03-27T03:40:53.002Z,38.43
2019-03-27T03:41:52.365Z,38.44
2019-03-27T03:42:52.377Z,38.42
2019-03-27T03:43:52.349Z,38.41
2019-03-27T03:44:52.515Z,38.42
2019-03-27T03:45:54.287Z,38.42
2019-03-27T03:47:00.597Z,38.43
2019-03-27T03:47:52.425Z,38.43
2019-03-27T03:48:52.493Z,38.44
2019-03-27T03:49:52.510Z,38.46
2019-03-27T03:50:52.477Z,38.45
2019-03-27T03:51:52.327Z,38.42
2019-03-27T03:52:52.330Z,38.41
2019-03-27T03:53:52.334Z,38.44
2019-03-27T03:54:52.272Z,38.42
2019-03-27T03:55:52.367Z,38.45
2019-03-27T03:56:52.367Z,38.43
2019-03-27T03:57:52.403Z,38.41
2019-03-27T03:58:52.260Z,38.43
2019-03-27T03:59:52.505Z,38.41
2019-03-27T04:00:52.539Z,38.44
2019-03-27T04:01:52.317Z,38.44
2019-03-27T04:02:52.538Z,38.45
2019-03-27T04:03:52.467Z,38.44
2019-03-27T04:04:52.513Z,38.47
2019-03-27T04:05:52.610Z,38.46
2019-03-27T04:06:52.772Z,38.44
2019-03-27T04:07:52.556Z,38.44
2019-03-27T04:08:52.801Z,38.48
2019-03-27T04:09:52.297Z,38.45
2019-03-27T04:10:52.405Z,38.41
2019-03-27T04:11:52.725Z,38.47
2019-03-27T04:12:52.357Z,38.44
2019-03-27T04:13:52.355Z,38.45
2019-03-27T04:14:52.327Z,38.45
2019-03-27T04:15:52.331Z,38.44
2019-03-27T04:16:52.510Z,38.47
2019-03-27T04:17:52.492Z,38.44
2019-03-27T04:18:52.400Z,38.45
2019-03-27T04:19:52.471Z,38.43
2019-03-27T04:20:52.426Z,38.45
2019-03-27T04:21:52.786Z,38.4
2019-03-27T04:22:52.439Z,38.45
2019-03-27T04:23:52.617Z,38.41
2019-03-27T04:24:52.629Z,38.43
2019-03-27T04:26:10.542Z,38.46
2019-03-27T04:26:52.570Z,38.39
2019-03-27T04:27:52.514Z,38.45
2019-03-27T04:28:52.644Z,38.43
2019-03-27T04:29:52.367Z,38.45
2019-03-27T04:30:52.355Z,38.44
2019-03-27T04:31:52.395Z,38.44
2019-03-27T04:32:52.473Z,38.47
2019-03-27T04:33:52.426Z,38.46
2019-03-27T04:34:52.378Z,38.47
2019-03-27T04:35:52.538Z,38.45
2019-03-27T04:36:52.407Z,38.48
2019-03-27T04:37:52.401Z,38.45
2019-03-27T04:38:52.446Z,38.47
2019-03-27T04:39:52.530Z,38.42
2019-03-27T04:40:52.447Z,38.44
2019-03-27T04:41:52.493Z,38.49
2019-03-27T04:42:52.466Z,38.46
2019-03-27T04:43:52.592Z,38.46
2019-03-27T04:44:52.605Z,38.45
2019-03-27T04:45:52.514Z,38.42
2019-03-27T04:46:52.241Z,38.45
2019-03-27T04:47:52.359Z,38.46
2019-03-27T04:48:52.272Z,38.45
2019-03-27T04:49:52.576Z,38.42
2019-03-27T04:50:53.341Z,38.44
2019-03-27T04:51:52.318Z,38.44
2019-03-27T04:52:52.336Z,38.41
2019-03-27T04:53:52.421Z,38.39
2019-03-27T04:54:52.363Z,38.41
2019-03-27T04:55:52.364Z,38.43
2019-03-27T04:56:52.391Z,38.43
2019-03-27T04:57:52.408Z,38.45
2019-03-27T04:58:52.431Z,38.48
2019-03-27T04:59:52.411Z,38.47
2019-03-27T05:00:52.446Z,38.41
2019-03-27T05:01:52.451Z,38.43
2019-03-27T05:02:52.425Z,38.41
2019-03-27T05:03:52.477Z,38.42
2019-03-27T05:04:52.300Z,38.38
2019-03-27T05:05:52.349Z,38.37
2019-03-27T05:06:52.422Z,38.37
2019-03-27T05:07:52.413Z,38.38
2019-03-27T05:08:52.335Z,38.28
2019-03-27T05:09:52.336Z,38.3
2019-03-27T05:10:52.375Z,38.26
2019-03-27T05:11:52.468Z,38.31
2019-03-27T05:12:52.501Z,38.3
2019-03-27T05:13:52.427Z,38.33
2019-03-27T05:14:52.404Z,38.27
2019-03-27T05:15:52.412Z,38.27
2019-03-27T05:16:52.407Z,38.32
2019-03-27T05:17:52.527Z,38.32
2019-03-27T05:18:52.586Z,38.34
2019-03-27T05:19:52.522Z,38.37
2019-03-27T05:20:52.502Z,38.38
2019-03-27T05:21:52.501Z,38.33
2019-03-27T05:22:52.250Z,38.33
2019-03-27T05:23:52.226Z,38.37
2019-03-27T05:24:52.240Z,38.35
2019-03-27T05:25:52.250Z,38.32
2019-03-27T05:26:52.288Z,38.32
2019-03-27T05:27:52.251Z,38.32
2019-03-27T05:28:52.303Z,38.39
2019-03-27T05:29:52.300Z,38.35
2019-03-27T05:30:52.323Z,38.36
2019-03-27T05:31:52.369Z,38.42
2019-03-27T05:32:52.470Z,38.41
2019-03-27T05:33:52.708Z,38.39
2019-03-27T05:34:52.389Z,38.38
2019-03-27T05:35:52.401Z,38.38
2019-03-27T05:36:52.402Z,38.37
2019-03-27T05:37:52.565Z,38.4
2019-03-27T05:38:52.448Z,38.4
2019-03-27T05:39:52.443Z,38.4
2019-03-27T05:40:52.464Z,38.43
2019-03-27T05:41:52.275Z,38.41
2019-03-27T05:43:01.347Z,38.38
2019-03-27T05:43:52.283Z,38.38
2019-03-27T05:44:52.421Z,38.34
2019-03-27T05:45:52.306Z,38.35
2019-03-27T05:46:52.311Z,38.38
2019-03-27T05:48:00.138Z,38.36
2019-03-27T05:48:52.473Z,38.37
2019-03-27T05:49:52.367Z,38.38
2019-03-27T05:50:52.392Z,38.35
2019-03-27T05:51:52.494Z,38.39
2019-03-27T05:52:52.524Z,38.36
2019-03-27T05:53:52.492Z,38.32
2019-03-27T05:54:52.637Z,38.36
2019-03-27T05:55:52.543Z,38.32
2019-03-27T05:56:52.478Z,38.34
2019-03-27T05:57:52.471Z,38.34
2019-03-27T05:58:52.637Z,38.36
2019-03-27T05:59:52.507Z,38.36
2019-03-27T06:00:52.221Z,38.34
2019-03-27T06:01:52.400Z,38.3
2019-03-27T06:02:52.372Z,38.3
2019-03-27T06:03:52.266Z,38.3
2019-03-27T06:04:52.459Z,38.29
2019-03-27T06:05:52.319Z,38.27
2019-03-27T06:06:52.283Z,38.33
2019-03-27T06:07:52.310Z,38.33
2019-03-27T06:08:52.347Z,38.27
2019-03-27T06:09:52.508Z,38.31
2019-03-27T06:10:52.485Z,38.3
2019-03-27T06:11:52.526Z,38.34
2019-03-27T06:12:52.518Z,38.28
2019-03-27T06:13:52.394Z,38.32
2019-03-27T06:14:52.414Z,38.28
2019-03-27T06:15:52.533Z,38.28
2019-03-27T06:16:52.779Z,38.28
2019-03-27T06:17:52.456Z,38.25
2019-03-27T06:18:52.336Z,38.3
2019-03-27T06:19:52.261Z,38.26
2019-03-27T06:20:52.280Z,38.24
2019-03-27T06:21:52.280Z,38.24
2019-03-27T06:22:52.329Z,38.3
2019-03-27T06:23:52.366Z,38.21
2019-03-27T06:24:52.380Z,38.27
2019-03-27T06:25:52.357Z,38.25
2019-03-27T06:26:52.444Z,38.18
2019-03-27T06:27:52.360Z,38.23
2019-03-27T06:28:52.375Z,38.25
2019-03-27T06:29:52.470Z,38.21
2019-03-27T06:30:52.438Z,38.18
2019-03-27T06:31:52.430Z,38.17
2019-03-27T06:32:52.430Z,38.22
2019-03-27T06:33:52.568Z,38.14
2019-03-27T06:34:52.491Z,38.17
2019-03-27T06:35:52.499Z,38.11
2019-03-27T06:36:52.634Z,38.15
2019-03-27T06:37:52.934Z,38.08
2019-03-27T06:38:52.186Z,38.16
2019-03-27T06:39:52.217Z,38.11
2019-03-27T06:40:52.262Z,38.2
2019-03-27T06:41:52.295Z,38.17
2019-03-27T06:42:52.309Z,38.12
2019-03-27T06:43:52.281Z,38.1
2019-03-27T06:44:52.430Z,38.08
2019-03-27T06:45:52.421Z,38.08
2019-03-27T06:46:52.346Z,38.08
2019-03-27T06:47:52.363Z,38.09
2019-03-27T06:48:52.372Z,38.1
2019-03-27T06:49:52.466Z,38.1
2019-03-27T06:50:52.382Z,38.05
2019-03-27T06:51:52.418Z,38.06
2019-03-27T06:52:52.416Z,38.11
2019-03-27T06:53:52.424Z,38.05
2019-03-27T06:54:52.567Z,38.11
2019-03-27T06:55:52.228Z,38.11
2019-03-27T06:56:52.301Z,38.07
2019-03-27T06:57:52.377Z,38.06
2019-03-27T06:58:55.242Z,38.06
2019-03-27T06:59:52.625Z,38.05
2019-03-27T07:00:52.296Z,38.02
2019-03-27T07:01:52.442Z,38.01
2019-03-27T07:02:52.495Z,37.98
2019-03-27T07:03:52.477Z,38.04
2019-03-27T07:04:52.369Z,37.98
2019-03-27T07:05:52.519Z,38.03
2019-03-27T07:06:52.423Z,38
2019-03-27T07:07:52.362Z,38.01
2019-03-27T07:08:52.409Z,38
2019-03-27T07:09:52.566Z,38.03
2019-03-27T07:10:52.579Z,38.05
2019-03-27T07:11:52.419Z,38.04
2019-03-27T07:12:52.616Z,38
2019-03-27T07:13:52.316Z,37.96
2019-03-27T07:14:52.192Z,37.99
2019-03-27T07:15:52.206Z,37.96
2019-03-27T07:16:52.306Z,38.01
2019-03-27T07:17:52.213Z,37.99
2019-03-27T07:18:52.274Z,37.97
2019-03-27T07:19:52.317Z,37.99
2019-03-27T07:20:52.645Z,37.92
2019-03-27T07:21:52.299Z,37.99
2019-03-27T07:22:52.382Z,37.97
2019-03-27T07:23:52.316Z,37.93
2019-03-27T07:24:52.331Z,37.93
2019-03-27T07:25:52.422Z,37.97
2019-03-27T07:26:52.477Z,37.9
2019-03-27T07:27:52.396Z,37.96
2019-03-27T07:28:52.472Z,37.91
2019-03-27T07:29:52.482Z,37.94
2019-03-27T07:30:52.528Z,37.97
2019-03-27T07:31:52.580Z,37.95
2019-03-27T07:32:52.305Z,37.96
2019-03-27T07:33:52.353Z,37.9
2019-03-27T07:34:52.304Z,37.97
2019-03-27T07:35:52.378Z,37.96
2019-03-27T07:36:52.350Z,38
2019-03-27T07:37:52.300Z,37.96
2019-03-27T07:38:52.342Z,37.96
2019-03-27T07:39:52.432Z,37.92
2019-03-27T07:40:52.412Z,37.95
2019-03-27T07:41:52.700Z,37.91
2019-03-27T07:42:52.699Z,37.93
2019-03-27T07:43:52.385Z,37.91
2019-03-27T07:44:52.384Z,37.94
2019-03-27T07:45:52.589Z,37.91
2019-03-27T07:46:52.425Z,37.92
2019-03-27T07:47:52.464Z,37.94
2019-03-27T07:48:54.601Z,37.88
2019-03-27T07:49:52.411Z,37.87
2019-03-27T07:50:52.210Z,37.89
2019-03-27T07:51:52.229Z,37.92
2019-03-27T07:52:52.213Z,37.88
2019-03-27T07:53:52.250Z,37.87
2019-03-27T07:54:52.272Z,37.93
2019-03-27T07:55:52.264Z,37.9
2019-03-27T07:56:52.294Z,37.84
2019-03-27T07:57:52.405Z,37.89
2019-03-27T07:58:52.600Z,37.91
2019-03-27T07:59:52.309Z,37.88
2019-03-27T08:00:52.327Z,37.89
2019-03-27T08:01:52.359Z,37.92
2019-03-27T08:02:52.360Z,37.87
2019-03-27T08:03:52.509Z,37.91
2019-03-27T08:04:52.416Z,37.9
2019-03-27T08:05:52.418Z,37.9
2019-03-27T08:06:52.421Z,37.92
2019-03-27T08:07:52.274Z,38.07
2019-03-27T08:08:52.502Z,38
2019-03-27T08:09:52.218Z,38.23
2019-03-27T08:10:52.319Z,38.44
2019-03-27T08:11:52.378Z,38.56
2019-03-27T08:12:52.299Z,38.71
2019-03-27T08:13:52.434Z,38.9
2019-03-27T08:14:52.489Z,38.73
2019-03-27T08:15:52.479Z,38.51
2019-03-27T08:16:52.486Z,38.66
2019-03-27T08:17:52.378Z,38.58
2019-03-27T08:18:52.373Z,38.69
2019-03-27T08:19:52.404Z,38.76
2019-03-27T08:20:52.422Z,39.41
2019-03-27T08:21:52.543Z,39.13
2019-03-27T08:22:52.538Z,38.85
2019-03-27T08:23:52.312Z,38.98
2019-03-27T08:24:52.194Z,38.63
2019-03-27T08:25:52.790Z,38.56
2019-03-27T08:26:52.726Z,38.81
2019-03-27T08:27:52.219Z,38.72
2019-03-27T08:28:52.237Z,38.67
2019-03-27T08:29:52.255Z,38.7
2019-03-27T08:30:52.259Z,38.58
2019-03-27T08:31:52.487Z,38.52
2019-03-27T08:32:52.342Z,38.72
2019-03-27T08:33:52.466Z,38.56
2019-03-27T08:34:52.329Z,38.53
2019-03-27T08:35:52.451Z,38.82
2019-03-27T08:36:52.387Z,38.6
2019-03-27T08:37:52.385Z,38.56
2019-03-27T08:38:52.533Z,38.29
2019-03-27T08:39:52.376Z,38.14
2019-03-27T08:40:52.296Z,38.09
2019-03-27T08:41:52.209Z,38.32
2019-03-27T08:42:52.239Z,38.23
2019-03-27T08:43:52.245Z,38.36
2019-03-27T08:44:52.376Z,38.63
2019-03-27T08:45:52.332Z,38.6
2019-03-27T08:46:52.241Z,38.61
2019-03-27T08:47:52.661Z,38.62
2019-03-27T08:48:52.288Z,38.55
2019-03-27T08:49:52.304Z,38.53
2019-03-27T08:50:52.372Z,38.57
2019-03-27T08:51:52.393Z,38.62
2019-03-27T08:52:52.360Z,38.54
2019-03-27T08:53:52.345Z,38.2
2019-03-27T08:54:52.357Z,38.13
2019-03-27T08:55:52.370Z,37.98
2019-03-27T08:56:52.463Z,37.92
2019-03-27T08:57:52.416Z,37.73
2019-03-27T08:58:52.434Z,37.6
2019-03-27T08:59:52.462Z,37.79
2019-03-27T09:00:52.168Z,37.55
2019-03-27T09:01:52.283Z,37.33
2019-03-27T09:02:52.205Z,37.56
2019-03-27T09:03:52.396Z,36.99
2019-03-27T09:04:52.404Z,37.2
2019-03-27T09:05:52.237Z,37.53
2019-03-27T09:06:52.430Z,37.66
2019-03-27T09:07:52.289Z,37.6
2019-03-27T09:08:52.467Z,37.65
2019-03-27T09:09:53.648Z,37.67
2019-03-27T09:10:52.452Z,37.7
2019-03-27T09:11:52.332Z,37.75
2019-03-27T09:12:52.629Z,37.74
2019-03-27T09:13:52.381Z,37.73
2019-03-27T09:14:52.400Z,37.73
2019-03-27T09:15:52.472Z,37.78
2019-03-27T09:16:52.282Z,37.78
2019-03-27T09:17:52.305Z,37.76
2019-03-27T09:18:52.237Z,37.78
2019-03-27T09:19:52.331Z,37.77
2019-03-27T09:20:52.259Z,37.76
2019-03-27T09:21:52.322Z,37.82
2019-03-27T09:22:52.331Z,37.82
2019-03-27T09:23:52.354Z,37.79
2019-03-27T09:24:52.380Z,37.79
2019-03-27T09:25:52.307Z,37.78
2019-03-27T09:26:52.346Z,37.84
2019-03-27T09:27:52.468Z,37.79
2019-03-27T09:28:52.341Z,37.8
2019-03-27T09:29:52.382Z,37.8
2019-03-27T09:30:52.540Z,37.81
2019-03-27T09:31:52.446Z,37.87
2019-03-27T09:32:52.422Z,37.81
2019-03-27T09:33:52.427Z,37.85
2019-03-27T09:34:52.426Z,37.89
2019-03-27T09:35:52.236Z,37.85
2019-03-27T09:36:52.224Z,37.8
2019-03-27T09:37:52.181Z,37.82
2019-03-27T09:38:52.190Z,37.89
2019-03-27T09:39:52.218Z,37.9
2019-03-27T09:40:52.253Z,37.9
2019-03-27T09:41:52.540Z,37.86
2019-03-27T09:42:52.242Z,37.9
2019-03-27T09:43:52.407Z,37.85
2019-03-27T09:44:52.247Z,37.82
2019-03-27T09:45:52.401Z,37.89
2019-03-27T09:46:52.348Z,37.86
2019-03-27T09:47:52.352Z,37.88
2019-03-27T09:48:52.367Z,37.88
2019-03-27T09:49:52.485Z,37.85
2019-03-27T09:50:52.440Z,37.92
2019-03-27T09:51:52.535Z,37.88
2019-03-27T09:52:52.817Z,37.91
2019-03-27T09:53:53.471Z,37.87
2019-03-27T09:54:52.275Z,37.87
2019-03-27T09:55:52.192Z,37.89
2019-03-27T09:56:52.230Z,37.9
2019-03-27T09:57:52.276Z,37.89
2019-03-27T09:58:52.311Z,37.91
2019-03-27T09:59:52.280Z,37.91
2019-03-27T10:00:52.283Z,37.88
2019-03-27T10:01:52.269Z,37.91
2019-03-27T10:02:52.425Z,37.89
2019-03-27T10:03:52.419Z,37.86
2019-03-27T10:04:56.182Z,37.88
2019-03-27T10:05:52.322Z,37.89
2019-03-27T10:06:52.476Z,37.9
2019-03-27T10:07:52.459Z,37.9
2019-03-27T10:08:52.366Z,37.91
2019-03-27T10:09:52.425Z,37.92
2019-03-27T10:10:52.520Z,37.92
2019-03-27T10:11:52.391Z,37.91
2019-03-27T10:12:52.449Z,37.91
2019-03-27T10:13:52.505Z,37.9
2019-03-27T10:14:52.167Z,37.95
2019-03-27T10:15:52.188Z,37.95
2019-03-27T10:16:52.176Z,37.92
2019-03-27T10:17:52.222Z,37.91
2019-03-27T10:18:52.177Z,37.87
2019-03-27T10:20:03.868Z,37.82
2019-03-27T10:20:52.227Z,37.81
2019-03-27T10:21:52.214Z,37.8
2019-03-27T10:22:52.312Z,37.78
2019-03-27T10:23:52.371Z,37.8
2019-03-27T10:24:52.338Z,37.79
2019-03-27T10:25:52.329Z,37.81
2019-03-27T10:26:52.341Z,37.82
2019-03-27T10:27:52.501Z,37.8
2019-03-27T10:28:52.536Z,37.83
2019-03-27T10:29:52.352Z,37.8
2019-03-27T10:30:52.365Z,37.8
2019-03-27T10:31:52.409Z,37.82
2019-03-27T10:32:52.260Z,37.83
2019-03-27T10:33:52.211Z,37.85
2019-03-27T10:34:52.208Z,37.85
2019-03-27T10:35:52.235Z,37.87
2019-03-27T10:36:52.186Z,37.86
2019-03-27T10:37:52.196Z,37.87
2019-03-27T10:38:52.278Z,37.89
2019-03-27T10:39:52.403Z,37.91
2019-03-27T10:40:52.241Z,37.87
2019-03-27T10:41:52.397Z,37.94
2019-03-27T10:42:52.259Z,37.85
2019-03-27T10:43:52.344Z,37.87
2019-03-27T10:44:52.314Z,37.88
2019-03-27T10:45:52.479Z,37.86
2019-03-27T10:46:52.311Z,37.92
2019-03-27T10:47:52.352Z,37.88
2019-03-27T10:48:53.320Z,37.88
2019-03-27T10:49:52.410Z,37.91
2019-03-27T10:50:52.387Z,37.87
2019-03-27T10:51:52.370Z,37.89
2019-03-27T10:52:52.525Z,37.88
2019-03-27T10:53:52.087Z,37.85
2019-03-27T10:54:52.130Z,37.85
2019-03-27T10:55:52.136Z,37.86
2019-03-27T10:56:52.455Z,37.84
2019-03-27T10:57:52.672Z,37.88
2019-03-27T10:58:52.190Z,37.87
2019-03-27T10:59:52.207Z,37.83
2019-03-27T11:00:52.326Z,37.85
2019-03-27T11:01:52.259Z,37.87
2019-03-27T11:02:52.251Z,37.91
2019-03-27T11:03:52.257Z,37.89
2019-03-27T11:04:52.270Z,37.85
2019-03-27T11:05:52.266Z,37.92
2019-03-27T11:06:52.288Z,37.87
2019-03-27T11:07:52.358Z,37.86
2019-03-27T11:08:52.346Z,37.88
2019-03-27T11:09:52.337Z,37.84
2019-03-27T11:10:52.366Z,37.86
2019-03-27T11:11:52.204Z,37.82
2019-03-27T11:12:52.144Z,37.9
2019-03-27T11:13:52.168Z,37.87
2019-03-27T11:14:52.176Z,37.85
2019-03-27T11:15:52.215Z,37.88
2019-03-27T11:16:52.206Z,37.82
2019-03-27T11:17:52.253Z,37.82
2019-03-27T11:18:52.636Z,37.85
2019-03-27T11:19:52.313Z,37.8
2019-03-27T11:20:52.324Z,37.85
2019-03-27T11:21:52.358Z,37.84
2019-03-27T11:22:52.287Z,37.82
2019-03-27T11:23:52.364Z,37.85
2019-03-27T11:24:52.338Z,37.87
2019-03-27T11:25:52.333Z,37.83
2019-03-27T11:26:52.355Z,37.84
2019-03-27T11:27:52.431Z,37.83
2019-03-27T11:28:52.354Z,37.86
2019-03-27T11:29:52.397Z,37.82
2019-03-27T11:30:52.476Z,37.86
2019-03-27T11:31:52.101Z,37.89
2019-03-27T11:32:52.341Z,37.86
2019-03-27T11:33:52.211Z,37.86
2019-03-27T11:34:52.151Z,37.88
2019-03-27T11:35:52.186Z,37.85
2019-03-27T11:36:52.186Z,37.87
2019-03-27T11:37:52.381Z,37.85
2019-03-27T11:38:52.382Z,37.85
2019-03-27T11:39:52.402Z,37.87
2019-03-27T11:40:52.238Z,37.83
2019-03-27T11:41:52.222Z,37.86
2019-03-27T11:42:53.382Z,37.83
2019-03-27T11:43:55.436Z,37.87
2019-03-27T11:44:52.330Z,37.82
2019-03-27T11:45:52.687Z,37.87
2019-03-27T11:46:52.309Z,37.87
2019-03-27T11:47:52.324Z,37.87
2019-03-27T11:48:52.317Z,37.88
2019-03-27T11:49:52.587Z,37.83
2019-03-27T11:50:52.159Z,37.83
2019-03-27T11:51:52.126Z,37.85
2019-03-27T11:52:52.219Z,37.87
2019-03-27T11:53:52.195Z,37.83
2019-03-27T11:54:52.388Z,37.79
2019-03-27T11:55:52.321Z,37.82
2019-03-27T11:56:52.231Z,37.82
2019-03-27T11:57:52.311Z,37.85
2019-03-27T11:58:52.243Z,37.84
2019-03-27T11:59:54.551Z,37.86
2019-03-27T12:00:55.289Z,37.85
2019-03-27T12:01:52.257Z,37.83
2019-03-27T12:02:52.295Z,37.86
2019-03-27T12:03:52.296Z,37.81
2019-03-27T12:04:52.296Z,37.82
2019-03-27T12:05:52.432Z,37.86
2019-03-27T12:06:52.557Z,37.87
2019-03-27T12:07:52.516Z,37.82
2019-03-27T12:08:52.359Z,37.82
2019-03-27T12:09:52.146Z,37.82
2019-03-27T12:10:52.267Z,37.81
2019-03-27T12:11:52.175Z,37.82
2019-03-27T12:12:52.224Z,37.81
2019-03-27T12:13:52.280Z,37.85
2019-03-27T12:14:52.158Z,37.81
2019-03-27T12:15:52.144Z,37.82
2019-03-27T12:16:52.178Z,37.82
2019-03-27T12:17:52.209Z,37.81
2019-03-27T12:18:53.333Z,37.82
2019-03-27T12:19:52.199Z,37.79
2019-03-27T12:20:59.799Z,37.82
2019-03-27T12:21:55.091Z,37.83
2019-03-27T12:22:58.063Z,37.85
2019-03-27T12:23:52.398Z,37.85
2019-03-27T12:24:52.388Z,37.85
2019-03-27T12:25:55.532Z,37.83
2019-03-27T12:26:52.294Z,37.81
2019-03-27T12:27:52.387Z,37.81
2019-03-27T12:28:52.388Z,37.86
2019-03-27T12:29:52.214Z,37.87
2019-03-27T12:30:52.135Z,37.83
2019-03-27T12:31:52.161Z,37.82
2019-03-27T12:32:52.225Z,37.81
2019-03-27T12:33:52.282Z,37.82
2019-03-27T12:34:52.196Z,37.84
2019-03-27T12:35:52.297Z,37.85
2019-03-27T12:36:52.220Z,37.86
2019-03-27T12:37:52.468Z,37.79
2019-03-27T12:38:52.382Z,37.87
2019-03-27T12:39:52.361Z,37.86
2019-03-27T12:40:52.343Z,37.81
2019-03-27T12:41:52.423Z,37.82
2019-03-27T12:42:52.441Z,37.83
2019-03-27T12:43:52.305Z,37.87
2019-03-27T12:44:52.418Z,37.8
2019-03-27T12:45:52.324Z,37.86
2019-03-27T12:46:52.462Z,37.86
2019-03-27T12:47:52.088Z,37.82
2019-03-27T12:48:52.086Z,37.81
2019-03-27T12:49:52.251Z,37.81
2019-03-27T12:50:52.252Z,37.82
2019-03-27T12:51:52.240Z,37.82
2019-03-27T12:52:52.269Z,37.79
2019-03-27T12:53:52.183Z,37.83
2019-03-27T12:54:52.165Z,37.78
2019-03-27T12:55:52.374Z,37.76